createdAt,value
2023-05-18T00:01:57.649Z,8.88
2023-05-18T00:04:02.095Z,8.90
2023-05-18T00:06:07.449Z,8.91
2023-05-18T00:08:10.563Z,8.93
2023-05-18T00:10:13.958Z,8.95
2023-05-18T00:12:17.271Z,8.93
2023-05-18T00:14:20.926Z,8.91
2023-05-18T00:16:25.495Z,8.87
2023-05-18T00:18:28.761Z,8.84
2023-05-18T00:20:31.912Z,8.82
2023-05-18T00:22:35.052Z,8.82
2023-05-18T00:24:38.222Z,8.82
2023-05-18T00:26:55.147Z,8.76
2023-05-18T00:29:06.689Z,8.74
2023-05-18T00:31:30.398Z,8.74
2023-05-18T00:33:50.035Z,8.67
2023-05-18T00:36:03.472Z,8.68
2023-05-18T00:38:12.059Z,8.67
2023-05-18T00:40:15.166Z,8.67
2023-05-18T00:42:21.016Z,8.63
2023-05-18T00:44:24.266Z,8.63
2023-05-18T00:46:29.561Z,8.63
2023-05-18T00:48:32.761Z,8.59
2023-05-18T00:50:36.325Z,8.59
2023-05-18T00:52:39.791Z,8.60
2023-05-18T00:54:43.708Z,8.61
2023-05-18T00:56:48.290Z,8.63
2023-05-18T00:58:55.524Z,8.64
2023-05-18T01:00:58.898Z,8.63
2023-05-18T01:03:03.571Z,8.61
2023-05-18T01:05:07.397Z,8.60
2023-05-18T01:07:12.925Z,8.61
2023-05-18T01:09:16.331Z,8.63
2023-05-18T01:11:27.216Z,8.64
2023-05-18T01:13:36.002Z,8.67
2023-05-18T01:15:40.509Z,8.72
2023-05-18T01:18:15.305Z,8.78
2023-05-18T01:20:33.581Z,8.81
2023-05-18T01:22:50.542Z,8.84
2023-05-18T01:24:59.370Z,8.86
2023-05-18T01:27:07.302Z,8.89
2023-05-18T01:29:11.465Z,8.91
2023-05-18T01:31:16.088Z,8.92
2023-05-18T01:33:19.712Z,8.92
2023-05-18T01:35:22.883Z,8.94
2023-05-18T01:37:26.964Z,8.93
2023-05-18T01:39:30.168Z,8.92
2023-05-18T01:41:36.774Z,8.94
2023-05-18T01:43:47.012Z,8.95
2023-05-18T01:45:52.771Z,8.98
2023-05-18T01:48:00.315Z,8.97
2023-05-18T01:50:05.283Z,9.00
2023-05-18T01:52:11.637Z,9.01
2023-05-18T01:54:17.800Z,9.02
2023-05-18T01:56:21.856Z,9.00
2023-05-18T01:58:25.442Z,9.01
2023-05-18T02:00:30.397Z,9.00
2023-05-18T02:02:35.128Z,8.94
2023-05-18T02:04:39.013Z,8.96
2023-05-18T02:06:42.482Z,8.90
2023-05-18T02:08:45.853Z,8.91
2023-05-18T02:10:49.204Z,8.91
2023-05-18T02:12:53.903Z,8.86
2023-05-18T02:14:58.492Z,8.80
2023-05-18T02:17:03.092Z,8.82
2023-05-18T02:19:06.478Z,8.85
2023-05-18T02:21:10.102Z,8.81
2023-05-18T02:23:15.938Z,8.84
2023-05-18T02:25:19.301Z,8.81
2023-05-18T02:27:22.975Z,8.77
2023-05-18T02:29:26.196Z,8.83
2023-05-18T02:31:31.072Z,8.80
2023-05-18T02:33:39.853Z,8.80
2023-05-18T02:35:42.016Z,8.75
2023-05-18T02:37:45.639Z,8.72
2023-05-18T02:39:49.132Z,8.70
2023-05-18T02:41:52.280Z,8.63
2023-05-18T02:43:56.084Z,8.63
2023-05-18T02:45:59.681Z,8.59
2023-05-18T02:48:04.105Z,8.59
2023-05-18T02:50:09.603Z,8.57
2023-05-18T02:52:12.849Z,8.53
2023-05-18T02:54:16.289Z,8.52
2023-05-18T02:56:20.298Z,8.50
2023-05-18T02:58:32.155Z,8.52
2023-05-18T03:00:50.225Z,8.52
2023-05-18T03:02:53.867Z,8.50
2023-05-18T03:04:57.478Z,8.55
2023-05-18T03:07:02.882Z,8.53
2023-05-18T03:09:06.195Z,8.55
2023-05-18T03:11:15.056Z,8.55
2023-05-18T03:13:19.701Z,8.53
2023-05-18T03:15:23.192Z,8.58
2023-05-18T03:17:26.420Z,8.61
2023-05-18T03:19:29.578Z,8.58
2023-05-18T03:21:36.201Z,8.59
2023-05-18T03:23:41.112Z,8.61
2023-05-18T03:25:44.832Z,8.60
2023-05-18T03:27:48.323Z,8.61
2023-05-18T03:29:53.127Z,8.56
2023-05-18T03:31:56.198Z,8.51
2023-05-18T03:33:59.494Z,8.52
2023-05-18T03:36:04.846Z,8.52
2023-05-18T03:38:08.734Z,8.51
2023-05-18T03:40:17.151Z,8.56
2023-05-18T03:42:21.717Z,8.58
2023-05-18T03:44:24.916Z,8.55
2023-05-18T03:46:28.301Z,8.54
2023-05-18T03:48:31.868Z,8.54
2023-05-18T03:50:35.207Z,8.56
2023-05-18T03:52:41.620Z,8.57
2023-05-18T03:54:45.172Z,8.56
2023-05-18T03:56:49.767Z,8.56
2023-05-18T03:58:53.488Z,8.59
2023-05-18T04:00:57.234Z,8.60
2023-05-18T04:03:03.392Z,8.60
2023-05-18T04:05:08.158Z,8.63
2023-05-18T04:07:11.803Z,8.57
2023-05-18T04:09:17.326Z,8.62
2023-05-18T04:11:21.469Z,8.64
2023-05-18T04:13:25.987Z,8.68
2023-05-18T04:15:29.421Z,8.65
2023-05-18T04:17:34.042Z,8.67
2023-05-18T04:19:37.981Z,8.72
2023-05-18T04:21:43.763Z,8.72
2023-05-18T04:23:47.278Z,8.79
2023-05-18T04:25:50.510Z,8.79
2023-05-18T04:27:54.498Z,8.78
2023-05-18T04:30:00.162Z,8.80
2023-05-18T04:32:03.390Z,8.84
2023-05-18T04:34:07.014Z,8.91
2023-05-18T04:36:10.387Z,8.92
2023-05-18T04:38:14.993Z,8.94
2023-05-18T04:40:18.559Z,8.97
2023-05-18T04:42:23.650Z,9.03
2023-05-18T04:44:27.802Z,9.08
2023-05-18T04:46:34.907Z,9.06
2023-05-18T04:48:38.961Z,9.10
2023-05-18T04:50:42.059Z,9.17
2023-05-18T04:52:48.735Z,9.18
2023-05-18T04:54:53.705Z,9.27
2023-05-18T04:56:56.774Z,9.29
2023-05-18T04:59:00.152Z,9.35
2023-05-18T05:01:06.905Z,9.34
2023-05-18T05:03:11.662Z,9.39
2023-05-18T05:05:14.832Z,9.46
2023-05-18T05:07:18.053Z,9.54
2023-05-18T05:09:22.810Z,9.56
2023-05-18T05:11:25.990Z,9.55
2023-05-18T05:13:29.175Z,9.57
2023-05-18T05:15:34.389Z,9.66
2023-05-18T05:17:37.610Z,9.75
2023-05-18T05:19:45.560Z,9.75
2023-05-18T05:21:48.890Z,9.86
2023-05-18T05:23:52.120Z,9.90
2023-05-18T05:25:55.391Z,9.84
2023-05-18T05:27:58.441Z,9.87
2023-05-18T05:30:01.912Z,9.91
2023-05-18T05:32:06.643Z,9.92
2023-05-18T05:34:11.723Z,10.08
2023-05-18T05:36:17.022Z,10.24
2023-05-18T05:38:21.623Z,10.43
2023-05-18T05:40:24.767Z,10.64
2023-05-18T05:42:30.119Z,10.91
2023-05-18T05:44:33.707Z,11.10
2023-05-18T05:46:53.825Z,11.13
2023-05-18T05:49:44.858Z,11.41
2023-05-18T05:51:49.982Z,11.67
2023-05-18T05:53:54.665Z,11.88
2023-05-18T05:55:57.971Z,11.89
2023-05-18T05:58:01.067Z,12.04
2023-05-18T06:00:05.912Z,12.18
2023-05-18T06:06:00.195Z,11.80
2023-05-18T06:08:06.705Z,11.98
2023-05-18T06:10:10.198Z,12.33
2023-05-18T06:12:13.618Z,12.48
2023-05-18T06:14:17.150Z,12.56
2023-05-18T06:16:20.823Z,12.71
2023-05-18T06:18:25.528Z,12.99
2023-05-18T06:20:38.805Z,12.95
2023-05-18T06:22:42.398Z,12.95
2023-05-18T06:25:08.448Z,13.28
2023-05-18T06:27:28.618Z,13.43
2023-05-18T06:29:46.466Z,13.46
2023-05-18T06:32:00.221Z,13.56
2023-05-18T06:34:18.415Z,13.48
2023-05-18T06:36:21.644Z,13.65
2023-05-18T06:38:25.017Z,13.86
2023-05-18T06:40:30.584Z,13.95
2023-05-18T06:42:35.101Z,14.09
2023-05-18T06:44:59.424Z,13.78
2023-05-18T06:47:48.660Z,13.87
2023-05-18T06:49:51.983Z,13.98
2023-05-18T06:51:55.262Z,14.26
2023-05-18T06:53:58.501Z,14.57
2023-05-18T06:56:04.989Z,14.54
2023-05-18T06:58:08.981Z,14.54
2023-05-18T07:00:13.940Z,14.50
2023-05-18T07:02:17.140Z,14.70
2023-05-18T07:04:20.314Z,15.09
2023-05-18T07:06:23.510Z,15.32
2023-05-18T07:08:26.624Z,15.17
2023-05-18T07:10:30.725Z,15.28
2023-05-18T07:12:35.221Z,15.47
2023-05-18T07:14:38.462Z,15.54
2023-05-18T07:16:41.655Z,15.66
2023-05-18T07:18:44.972Z,15.61
2023-05-18T07:20:48.211Z,16.02
2023-05-18T07:22:51.515Z,16.26
2023-05-18T07:24:54.637Z,16.34
2023-05-18T07:27:00.041Z,16.58
2023-05-18T07:29:05.448Z,16.47
2023-05-18T07:31:08.628Z,16.23
2023-05-18T07:33:11.857Z,16.49
2023-05-18T07:35:16.786Z,16.72
2023-05-18T07:37:20.023Z,16.60
2023-05-18T07:39:28.548Z,17.06
2023-05-18T07:41:32.292Z,17.41
2023-05-18T07:43:37.555Z,17.09
2023-05-18T07:45:42.060Z,17.36
2023-05-18T07:47:46.484Z,17.46
2023-05-18T07:49:49.815Z,17.53
2023-05-18T07:51:53.516Z,17.41
2023-05-18T07:53:56.708Z,17.45
2023-05-18T07:56:00.273Z,17.50
2023-05-18T07:58:03.488Z,17.64
2023-05-18T08:00:10.249Z,17.46
2023-05-18T08:02:19.919Z,17.42
2023-05-18T08:04:23.143Z,17.46
2023-05-18T08:06:26.328Z,17.72
2023-05-18T08:08:30.036Z,17.82
2023-05-18T08:10:33.153Z,17.76
2023-05-18T08:12:36.338Z,18.15
2023-05-18T08:14:39.501Z,18.32
2023-05-18T08:16:42.639Z,18.47
2023-05-18T08:18:47.122Z,18.34
2023-05-18T08:20:53.876Z,18.47
2023-05-18T08:22:56.972Z,18.73
2023-05-18T08:25:00.964Z,19.00
2023-05-18T08:27:04.454Z,18.72
2023-05-18T08:29:10.131Z,18.77
2023-05-18T08:31:13.590Z,18.82
2023-05-18T08:33:16.708Z,18.91
2023-05-18T08:35:21.298Z,18.84
2023-05-18T08:37:29.606Z,19.13
2023-05-18T08:39:33.874Z,19.28
2023-05-18T08:41:40.378Z,19.37
2023-05-18T08:43:47.230Z,19.53
2023-05-18T08:45:53.868Z,19.29
2023-05-18T08:47:58.154Z,19.09
2023-05-18T08:50:04.339Z,18.85
2023-05-18T08:52:10.005Z,18.48
2023-05-18T08:54:13.260Z,18.73
2023-05-18T08:56:16.671Z,18.77
2023-05-18T08:58:21.780Z,18.87
2023-05-18T09:00:25.334Z,18.62
2023-05-18T09:02:28.710Z,18.49
2023-05-18T09:04:34.735Z,18.39
2023-05-18T09:06:38.635Z,18.41
2023-05-18T09:08:43.623Z,18.37
2023-05-18T09:10:50.184Z,18.56
2023-05-18T09:12:53.669Z,18.60
2023-05-18T09:14:57.149Z,18.35
2023-05-18T09:17:00.495Z,18.27
2023-05-18T09:19:03.588Z,18.39
2023-05-18T09:21:06.976Z,18.56
2023-05-18T09:23:12.006Z,18.67
2023-05-18T09:25:17.839Z,18.46
2023-05-18T09:27:21.728Z,18.29
2023-05-18T09:29:25.249Z,18.35
2023-05-18T09:31:28.563Z,18.49
2023-05-18T09:33:37.514Z,18.61
2023-05-18T09:35:42.564Z,18.83
2023-05-18T09:37:45.672Z,18.55
2023-05-18T09:39:59.988Z,18.63
2023-05-18T09:42:06.112Z,19.03
2023-05-18T09:44:10.117Z,19.41
2023-05-18T09:46:14.225Z,19.48
2023-05-18T09:48:18.081Z,19.33
2023-05-18T09:50:21.946Z,19.28
2023-05-18T09:52:25.236Z,19.37
2023-05-18T09:54:28.449Z,19.32
2023-05-18T09:56:31.749Z,19.00
2023-05-18T09:58:36.589Z,18.80
2023-05-18T10:00:42.757Z,18.74
2023-05-18T10:02:48.981Z,18.64
2023-05-18T10:04:52.421Z,18.54
2023-05-18T10:06:55.771Z,18.46
2023-05-18T10:08:59.432Z,18.36
2023-05-18T10:11:02.847Z,18.38
2023-05-18T10:13:05.996Z,18.39
2023-05-18T10:15:14.563Z,18.24
2023-05-18T10:17:18.035Z,18.10
2023-05-18T10:19:21.709Z,18.02
2023-05-18T10:21:26.013Z,18.39
2023-05-18T10:23:38.469Z,18.68
2023-05-18T10:25:43.915Z,18.64
2023-05-18T10:27:49.012Z,18.66
2023-05-18T10:29:52.744Z,18.71
2023-05-18T10:32:06.104Z,18.88
2023-05-18T10:34:11.686Z,18.34
2023-05-18T10:36:14.747Z,18.46
2023-05-18T10:38:22.182Z,18.63
2023-05-18T10:40:25.809Z,18.80
2023-05-18T10:42:31.284Z,18.88
2023-05-18T10:44:34.376Z,18.90
2023-05-18T10:46:38.434Z,18.90
2023-05-18T10:48:43.909Z,18.47
2023-05-18T10:50:49.466Z,18.29
2023-05-18T10:52:53.239Z,18.32
2023-05-18T10:54:56.422Z,18.26
2023-05-18T10:56:59.603Z,18.49
2023-05-18T10:59:02.816Z,18.52
2023-05-18T11:01:09.259Z,18.38
2023-05-18T11:03:14.446Z,18.38
2023-05-18T11:05:24.956Z,18.41
2023-05-18T11:07:30.557Z,18.48
2023-05-18T11:09:34.744Z,18.41
2023-05-18T11:11:54.173Z,18.46
2023-05-18T11:14:02.160Z,18.50
2023-05-18T11:16:06.887Z,18.58
2023-05-18T11:18:16.577Z,18.36
2023-05-18T11:20:26.768Z,18.43
2023-05-18T11:22:42.455Z,18.42
2023-05-18T11:24:45.467Z,18.48
2023-05-18T11:26:49.373Z,18.44
2023-05-18T11:28:53.731Z,18.43
2023-05-18T11:30:57.128Z,18.17
2023-05-18T11:33:09.844Z,18.24
2023-05-18T11:35:25.710Z,18.37
2023-05-18T11:37:50.823Z,18.38
2023-05-18T11:40:00.110Z,18.49
2023-05-18T11:42:07.900Z,18.59
2023-05-18T11:44:18.639Z,18.37
2023-05-18T11:46:22.635Z,18.38
2023-05-18T11:48:29.983Z,18.34
2023-05-18T11:50:34.645Z,18.42
2023-05-18T11:52:47.017Z,18.55
2023-05-18T11:54:52.860Z,18.74
2023-05-18T11:56:56.735Z,18.69
2023-05-18T11:59:15.997Z,18.66
2023-05-18T12:01:19.366Z,18.74
2023-05-18T12:03:24.981Z,18.67
2023-05-18T12:05:31.753Z,18.75
2023-05-18T12:07:37.135Z,18.74
2023-05-18T12:09:42.718Z,18.76
2023-05-18T12:11:45.731Z,18.75
2023-05-18T12:13:50.323Z,18.64
2023-05-18T12:15:58.226Z,18.54
2023-05-18T12:18:02.266Z,18.69
2023-05-18T12:20:05.950Z,18.73
2023-05-18T12:22:10.032Z,18.75
2023-05-18T12:24:14.485Z,18.75
2023-05-18T12:26:20.582Z,18.85
2023-05-18T12:28:26.879Z,18.83
2023-05-18T12:30:36.070Z,18.77
2023-05-18T12:32:40.778Z,18.73
2023-05-18T12:34:45.519Z,18.63
2023-05-18T12:36:54.417Z,18.75
2023-05-18T12:38:57.428Z,18.91
2023-05-18T12:41:03.880Z,19.10
2023-05-18T12:43:07.465Z,19.14
2023-05-18T12:45:12.697Z,19.08
2023-05-18T12:47:15.905Z,18.98
2023-05-18T12:49:20.346Z,18.76
2023-05-18T12:51:23.479Z,18.71
2023-05-18T12:53:26.880Z,18.80
2023-05-18T12:55:32.131Z,18.73
2023-05-18T12:57:41.835Z,18.82
2023-05-18T12:59:51.008Z,18.94
2023-05-18T13:01:54.891Z,18.95
2023-05-18T13:03:59.355Z,18.87
2023-05-18T13:06:06.592Z,18.71
2023-05-18T13:08:09.943Z,18.69
2023-05-18T13:10:17.872Z,18.66
2023-05-18T13:12:36.712Z,18.78
2023-05-18T13:14:43.428Z,18.84
2023-05-18T13:16:46.964Z,18.68
2023-05-18T13:18:57.455Z,18.52
2023-05-18T13:21:00.763Z,18.61
2023-05-18T13:23:04.871Z,18.59
2023-05-18T13:25:09.159Z,18.50
2023-05-18T13:27:16.310Z,18.50
2023-05-18T13:29:19.396Z,18.45
2023-05-18T13:31:25.111Z,18.63
2023-05-18T13:33:28.384Z,18.78
2023-05-18T13:35:31.646Z,18.85
2023-05-18T13:37:34.912Z,18.96
2023-05-18T13:39:37.901Z,19.05
2023-05-18T13:41:41.036Z,18.94
2023-05-18T13:43:45.616Z,18.95
2023-05-18T13:45:48.942Z,18.81
2023-05-18T13:47:54.613Z,18.79
2023-05-18T13:49:57.664Z,18.83
2023-05-18T13:52:01.172Z,18.97
2023-05-18T13:54:07.867Z,19.10
2023-05-18T13:56:10.905Z,19.17
2023-05-18T13:58:13.948Z,19.23
2023-05-18T14:00:18.038Z,19.14
2023-05-18T14:02:21.250Z,18.93
2023-05-18T14:04:25.785Z,18.96
2023-05-18T14:06:28.858Z,19.02
2023-05-18T14:08:31.991Z,19.05
2023-05-18T14:10:35.045Z,19.10
2023-05-18T14:12:38.139Z,18.97
2023-05-18T14:14:43.155Z,18.90
2023-05-18T14:16:46.443Z,18.68
2023-05-18T14:18:49.558Z,18.62
2023-05-18T14:20:53.963Z,18.48
2023-05-18T14:22:57.011Z,18.52
2023-05-18T14:25:00.931Z,18.55
2023-05-18T14:27:04.250Z,18.36
2023-05-18T14:29:07.360Z,18.37
2023-05-18T14:31:10.605Z,18.40
2023-05-18T14:33:13.855Z,18.43
2023-05-18T14:35:17.022Z,18.46
2023-05-18T14:37:21.364Z,18.53
2023-05-18T14:39:24.415Z,18.52
2023-05-18T14:41:27.549Z,18.53
2023-05-18T14:43:30.711Z,18.48
2023-05-18T14:45:33.793Z,18.44
2023-05-18T14:47:36.882Z,18.47
2023-05-18T14:49:40.005Z,18.53
2023-05-18T14:51:43.445Z,18.59
2023-05-18T14:53:47.865Z,18.61
2023-05-18T14:55:51.036Z,18.62
2023-05-18T14:57:54.088Z,18.73
2023-05-18T14:59:58.252Z,18.88
2023-05-18T15:02:01.563Z,19.04
2023-05-18T15:04:04.825Z,19.12
2023-05-18T15:06:08.123Z,19.05
2023-05-18T15:08:11.158Z,18.96
2023-05-18T15:10:15.776Z,18.84
2023-05-18T15:12:19.766Z,18.74
2023-05-18T15:14:22.924Z,18.54
2023-05-18T15:16:26.048Z,18.41
2023-05-18T15:18:29.463Z,18.39
2023-05-18T15:20:32.976Z,18.37
2023-05-18T15:22:38.202Z,18.37
2023-05-18T15:24:41.519Z,18.44
2023-05-18T15:26:46.190Z,18.48
2023-05-18T15:28:50.564Z,18.53
2023-05-18T15:30:54.466Z,18.62
2023-05-18T15:32:57.773Z,18.68
2023-05-18T15:35:00.842Z,18.74
2023-05-18T15:37:03.896Z,18.86
2023-05-18T15:39:06.869Z,18.94
2023-05-18T15:41:11.528Z,19.01
2023-05-18T15:43:16.026Z,18.99
2023-05-18T15:45:19.127Z,18.98
2023-05-18T15:47:22.333Z,18.87
2023-05-18T15:49:25.546Z,18.76
2023-05-18T15:51:28.775Z,18.64
2023-05-18T15:53:32.358Z,18.61
2023-05-18T15:55:35.425Z,18.56
2023-05-18T15:57:38.631Z,18.48
2023-05-18T15:59:43.707Z,18.46
2023-05-18T16:01:49.656Z,18.48
2023-05-18T16:03:52.969Z,18.52
2023-05-18T16:05:56.182Z,18.49
2023-05-18T16:07:59.613Z,18.56
2023-05-18T16:10:02.712Z,18.59
2023-05-18T16:12:06.481Z,18.61
2023-05-18T16:14:09.538Z,18.55
2023-05-18T16:16:14.208Z,18.50
2023-05-18T16:18:17.419Z,18.55
2023-05-18T16:20:21.140Z,18.50
2023-05-18T16:22:24.217Z,18.32
2023-05-18T16:24:27.351Z,18.32
2023-05-18T16:26:30.409Z,18.26
2023-05-18T16:28:33.524Z,18.26
2023-05-18T16:30:36.574Z,18.32
2023-05-18T16:32:43.189Z,18.32
2023-05-18T16:34:46.382Z,18.35
2023-05-18T16:36:49.547Z,18.44
2023-05-18T16:38:52.629Z,18.48
2023-05-18T16:40:55.691Z,18.49
2023-05-18T16:42:58.779Z,18.48
2023-05-18T16:45:01.811Z,18.47
2023-05-18T16:47:05.039Z,18.44
2023-05-18T16:49:09.452Z,18.37
2023-05-18T16:51:12.528Z,18.32
2023-05-18T16:53:15.627Z,18.31
2023-05-18T16:55:18.772Z,18.28
2023-05-18T16:57:22.214Z,18.26
2023-05-18T16:59:25.621Z,18.16
2023-05-18T17:01:30.760Z,18.14
2023-05-18T17:03:34.363Z,18.14
2023-05-18T17:05:39.304Z,18.11
2023-05-18T17:07:42.351Z,17.99
2023-05-18T17:09:45.499Z,17.95
2023-05-18T17:11:48.585Z,18.00
2023-05-18T17:13:52.173Z,18.01
2023-05-18T17:15:55.334Z,18.01
2023-05-18T17:17:58.436Z,17.98
2023-05-18T17:20:02.131Z,17.99
2023-05-18T17:22:09.480Z,18.06
2023-05-18T17:24:12.721Z,18.01
2023-05-18T17:26:15.864Z,18.01
2023-05-18T17:28:18.952Z,18.04
2023-05-18T17:30:22.161Z,18.03
2023-05-18T17:32:25.196Z,18.02
2023-05-18T17:34:30.512Z,17.97
2023-05-18T17:36:33.606Z,17.90
2023-05-18T17:38:38.035Z,17.88
2023-05-18T17:40:41.376Z,17.88
2023-05-18T17:42:44.415Z,17.84
2023-05-18T17:44:47.606Z,17.81
2023-05-18T17:46:50.966Z,17.80
2023-05-18T17:48:54.069Z,17.81
2023-05-18T17:50:57.245Z,17.83
2023-05-18T17:53:00.327Z,17.85
2023-05-18T17:55:05.043Z,17.82
2023-05-18T17:57:08.063Z,17.81
2023-05-18T17:59:11.184Z,17.87
2023-05-18T18:01:14.394Z,17.82
2023-05-18T18:03:20.445Z,17.79
2023-05-18T18:05:23.720Z,17.77
2023-05-18T18:07:26.889Z,17.73
2023-05-18T18:09:30.142Z,17.66
2023-05-18T18:11:34.825Z,17.72
2023-05-18T18:13:38.187Z,17.71
2023-05-18T18:15:41.372Z,17.67
2023-05-18T18:17:44.740Z,17.68
2023-05-18T18:19:47.902Z,17.73
2023-05-18T18:21:51.174Z,17.72
2023-05-18T18:23:54.299Z,17.70
2023-05-18T18:25:57.330Z,17.69
2023-05-18T18:28:01.844Z,17.59
2023-05-18T18:30:05.667Z,17.54
2023-05-18T18:32:09.021Z,17.54
2023-05-18T18:34:12.480Z,17.46
2023-05-18T18:36:15.956Z,17.44
2023-05-18T18:38:19.083Z,17.41
2023-05-18T18:40:22.309Z,17.38
2023-05-18T18:42:25.888Z,17.30
2023-05-18T18:44:30.397Z,17.26
2023-05-18T18:46:33.605Z,17.21
2023-05-18T18:48:37.225Z,17.19
2023-05-18T18:50:40.364Z,17.18
2023-05-18T18:52:43.462Z,17.11
2023-05-18T18:54:46.628Z,17.09
2023-05-18T18:56:50.177Z,17.06
2023-05-18T18:58:53.339Z,17.03
2023-05-18T19:00:57.841Z,16.97
2023-05-18T19:03:01.254Z,16.94
2023-05-18T19:05:05.514Z,16.90
2023-05-18T19:07:08.840Z,16.87
2023-05-18T19:09:11.936Z,16.82
2023-05-18T19:11:15.095Z,16.76
2023-05-18T19:13:18.296Z,16.70
2023-05-18T19:15:22.331Z,16.64
2023-05-18T19:17:27.039Z,16.58
2023-05-18T19:19:32.603Z,16.53
2023-05-18T19:21:36.088Z,16.46
2023-05-18T19:23:39.330Z,16.46
2023-05-18T19:25:42.518Z,16.41
2023-05-18T19:27:46.109Z,16.33
2023-05-18T19:29:49.495Z,16.25
2023-05-18T19:31:54.618Z,16.17
2023-05-18T19:34:00.007Z,16.12
2023-05-18T19:36:04.218Z,16.03
2023-05-18T19:38:07.397Z,15.95
2023-05-18T19:40:10.661Z,15.88
2023-05-18T19:42:13.832Z,15.83
2023-05-18T19:44:17.008Z,15.79
2023-05-18T19:46:20.480Z,15.72
2023-05-18T19:48:23.890Z,15.70
2023-05-18T19:50:28.520Z,15.64
2023-05-18T19:52:32.232Z,15.59
2023-05-18T19:54:35.984Z,15.54
2023-05-18T19:56:39.432Z,15.49
2023-05-18T19:58:42.842Z,15.45
2023-05-18T20:00:46.073Z,15.40
2023-05-18T20:02:49.302Z,15.34
2023-05-18T20:04:53.405Z,15.28
2023-05-18T20:06:59.993Z,15.23
2023-05-18T20:09:03.879Z,15.16
2023-05-18T20:11:07.321Z,15.10
2023-05-18T20:13:10.680Z,15.05
2023-05-18T20:15:14.266Z,15.01
2023-05-18T20:17:17.372Z,15.01
2023-05-18T20:19:22.172Z,14.97
2023-05-18T20:21:25.686Z,14.93
2023-05-18T20:23:30.205Z,14.89
2023-05-18T20:25:35.334Z,14.83
2023-05-18T20:27:38.673Z,14.81
2023-05-18T20:29:41.750Z,14.76
2023-05-18T20:31:46.244Z,14.72
2023-05-18T20:33:49.578Z,14.68
2023-05-18T20:35:52.983Z,14.68
2023-05-18T20:37:57.560Z,14.68
2023-05-18T20:40:02.725Z,14.67
2023-05-18T20:42:06.700Z,14.68
2023-05-18T20:44:11.345Z,14.67
2023-05-18T20:46:14.603Z,14.69
2023-05-18T20:48:24.668Z,14.67
2023-05-18T20:50:27.851Z,14.67
2023-05-18T20:52:31.217Z,14.66
2023-05-18T20:54:34.470Z,14.63
2023-05-18T20:56:39.041Z,14.57
2023-05-18T20:58:49.691Z,14.50
2023-05-18T21:00:55.559Z,14.47
2023-05-18T21:02:58.775Z,14.45
2023-05-18T21:05:02.788Z,14.43
2023-05-18T21:07:06.272Z,14.41
2023-05-18T21:09:09.610Z,14.40
2023-05-18T21:11:12.696Z,14.36
2023-05-18T21:13:17.244Z,14.35
2023-05-18T21:15:20.464Z,14.34
2023-05-18T21:17:23.630Z,14.34
2023-05-18T21:19:26.826Z,14.34
2023-05-18T21:21:29.956Z,14.32
2023-05-18T21:23:33.100Z,14.30
2023-05-18T21:25:36.180Z,14.27
2023-05-18T21:27:39.432Z,14.23
2023-05-18T21:29:44.118Z,14.17
2023-05-18T21:31:48.806Z,14.12
2023-05-18T21:33:52.714Z,14.11
2023-05-18T21:35:55.913Z,14.13
2023-05-18T21:37:58.967Z,14.12
2023-05-18T21:40:02.467Z,14.18
2023-05-18T21:42:05.988Z,14.24
2023-05-18T21:44:09.440Z,14.29
2023-05-18T21:46:13.921Z,14.32
2023-05-18T21:48:17.007Z,14.33
2023-05-18T21:50:20.064Z,14.32
2023-05-18T21:52:23.486Z,14.35
2023-05-18T21:54:26.506Z,14.48
2023-05-18T21:56:30.118Z,14.41
2023-05-18T21:58:33.140Z,14.47
2023-05-18T22:00:37.672Z,14.51
2023-05-18T22:02:42.319Z,14.49
2023-05-18T22:04:45.739Z,14.48
2023-05-18T22:06:48.802Z,14.44
2023-05-18T22:08:52.799Z,14.38
2023-05-18T22:10:55.927Z,14.40
2023-05-18T22:12:58.971Z,14.41
2023-05-18T22:15:02.122Z,14.44
2023-05-18T22:17:06.607Z,14.42
2023-05-18T22:19:11.165Z,14.46
2023-05-18T22:21:14.417Z,14.43
2023-05-18T22:23:17.469Z,14.45
2023-05-18T22:25:20.662Z,14.41
2023-05-18T22:27:23.800Z,14.42
2023-05-18T22:29:27.198Z,14.36
2023-05-18T22:31:30.522Z,14.29
2023-05-18T22:33:33.638Z,14.28
2023-05-18T22:35:38.089Z,14.30
2023-05-18T22:37:41.247Z,14.27
2023-05-18T22:39:44.481Z,14.26
2023-05-18T22:41:47.587Z,14.24
2023-05-18T22:43:50.619Z,14.19
2023-05-18T22:45:54.150Z,14.15
2023-05-18T22:47:57.286Z,14.15
2023-05-18T22:50:00.451Z,14.15
2023-05-18T22:52:06.710Z,14.08
2023-05-18T22:54:09.881Z,14.02
2023-05-18T22:56:13.066Z,14.01
2023-05-18T22:58:16.217Z,13.95
2023-05-18T23:00:19.523Z,13.94
2023-05-18T23:02:22.555Z,13.90
2023-05-18T23:04:25.923Z,13.87
2023-05-18T23:06:31.618Z,13.82
2023-05-18T23:08:37.116Z,13.73
2023-05-18T23:10:41.949Z,13.75
2023-05-18T23:12:45.757Z,13.65
2023-05-18T23:14:49.733Z,13.65
2023-05-18T23:16:53.620Z,13.64
2023-05-18T23:18:58.711Z,13.58
2023-05-18T23:21:02.768Z,13.61
2023-05-18T23:23:05.863Z,13.56
2023-05-18T23:25:11.146Z,13.54
2023-05-18T23:27:14.200Z,13.50
2023-05-18T23:29:17.344Z,13.41
2023-05-18T23:31:22.131Z,13.35
2023-05-18T23:33:26.014Z,13.36
2023-05-18T23:35:30.125Z,13.35
2023-05-18T23:37:33.654Z,13.34
2023-05-18T23:39:37.069Z,13.28
2023-05-18T23:41:41.594Z,13.24
2023-05-18T23:43:45.342Z,13.20
2023-05-18T23:45:49.065Z,13.18
2023-05-18T23:47:53.148Z,13.17
2023-05-18T23:49:57.046Z,13.22
2023-05-18T23:52:03.184Z,13.16
2023-05-18T23:54:07.477Z,13.11
2023-05-18T23:56:12.310Z,13.12
2023-05-18T23:58:17.304Z,13.11
